sensor_id;sensor_type;location;lat;lon;timestamp;P1;durP1;ratioP1;P2;durP2;ratioP2
11761;SDS011;5938;47.098;15.474;2022-11-20T00:00:44;37.10;;;19.37;;
11761;SDS011;5938;47.098;15.474;2022-11-20T00:04:47;42.27;;;22.90;;
11761;SDS011;5938;47.098;15.474;2022-11-20T00:08:50;46.37;;;23.67;;
11761;SDS011;5938;47.098;15.474;2022-11-20T00:12:54;38.10;;;20.27;;
11761;SDS011;5938;47.098;15.474;2022-11-20T00:16:58;42.10;;;21.33;;
11761;SDS011;5938;47.098;15.474;2022-11-20T00:21:02;41.77;;;21.83;;
11761;SDS011;5938;47.098;15.474;2022-11-20T00:25:06;37.13;;;19.63;;
11761;SDS011;5938;47.098;15.474;2022-11-20T00:29:10;39.10;;;20.03;;
11761;SDS011;5938;47.098;15.474;2022-11-20T00:33:15;38.93;;;18.93;;
11761;SDS011;5938;47.098;15.474;2022-11-20T00:37:18;43.67;;;22.37;;
11761;SDS011;5938;47.098;15.474;2022-11-20T00:41:21;35.77;;;21.07;;
11761;SDS011;5938;47.098;15.474;2022-11-20T00:45:25;44.50;;;23.63;;
11761;SDS011;5938;47.098;15.474;2022-11-20T00:49:30;47.73;;;20.53;;
11761;SDS011;5938;47.098;15.474;2022-11-20T00:53:33;42.00;;;21.83;;
11761;SDS011;5938;47.098;15.474;2022-11-20T00:57:37;54.03;;;22.77;;
11761;SDS011;5938;47.098;15.474;2022-11-20T01:01:40;36.67;;;19.50;;
11761;SDS011;5938;47.098;15.474;2022-11-20T01:05:44;38.37;;;20.40;;
11761;SDS011;5938;47.098;15.474;2022-11-20T01:09:48;34.50;;;20.07;;
11761;SDS011;5938;47.098;15.474;2022-11-20T01:13:52;34.30;;;19.77;;
11761;SDS011;5938;47.098;15.474;2022-11-20T01:17:56;44.77;;;22.80;;
11761;SDS011;5938;47.098;15.474;2022-11-20T01:22:00;40.60;;;22.30;;
11761;SDS011;5938;47.098;15.474;2022-11-20T01:26:05;42.43;;;20.77;;
11761;SDS011;5938;47.098;15.474;2022-11-20T01:30:10;41.93;;;21.83;;
11761;SDS011;5938;47.098;15.474;2022-11-20T01:34:15;38.47;;;19.87;;
11761;SDS011;5938;47.098;15.474;2022-11-20T01:38:21;43.50;;;21.43;;
11761;SDS011;5938;47.098;15.474;2022-11-20T01:42:24;40.50;;;21.87;;
11761;SDS011;5938;47.098;15.474;2022-11-20T01:46:47;39.60;;;20.23;;
11761;SDS011;5938;47.098;15.474;2022-11-20T01:50:57;57.10;;;26.90;;
11761;SDS011;5938;47.098;15.474;2022-11-20T01:55:03;67.93;;;27.50;;
11761;SDS011;5938;47.098;15.474;2022-11-20T01:59:10;37.97;;;19.10;;
11761;SDS011;5938;47.098;15.474;2022-11-20T02:03:16;105.03;;;38.00;;
11761;SDS011;5938;47.098;15.474;2022-11-20T02:07:21;57.97;;;25.50;;
11761;SDS011;5938;47.098;15.474;2022-11-20T02:11:27;36.37;;;18.17;;
11761;SDS011;5938;47.098;15.474;2022-11-20T02:15:33;42.47;;;19.43;;
11761;SDS011;5938;47.098;15.474;2022-11-20T02:19:36;37.97;;;18.73;;
11761;SDS011;5938;47.098;15.474;2022-11-20T02:27:59;32.70;;;16.57;;
11761;SDS011;5938;47.098;15.474;2022-11-20T02:32:02;27.20;;;15.77;;
11761;SDS011;5938;47.098;15.474;2022-11-20T02:36:07;28.33;;;16.33;;
11761;SDS011;5938;47.098;15.474;2022-11-20T02:40:15;26.93;;;15.07;;
11761;SDS011;5938;47.098;15.474;2022-11-20T02:44:22;25.30;;;14.50;;
11761;SDS011;5938;47.098;15.474;2022-11-20T02:48:26;24.90;;;15.63;;
11761;SDS011;5938;47.098;15.474;2022-11-20T02:52:34;25.40;;;14.47;;
11761;SDS011;5938;47.098;15.474;2022-11-20T02:56:38;23.50;;;15.70;;
11761;SDS011;5938;47.098;15.474;2022-11-20T03:00:42;25.27;;;14.50;;
11761;SDS011;5938;47.098;15.474;2022-11-20T03:04:45;27.20;;;13.57;;
11761;SDS011;5938;47.098;15.474;2022-11-20T03:08:49;32.07;;;16.00;;
11761;SDS011;5938;47.098;15.474;2022-11-20T03:12:54;31.40;;;15.13;;
11761;SDS011;5938;47.098;15.474;2022-11-20T03:16:58;30.63;;;16.53;;
11761;SDS011;5938;47.098;15.474;2022-11-20T03:21:01;24.33;;;15.03;;
11761;SDS011;5938;47.098;15.474;2022-11-20T03:25:04;27.47;;;15.13;;
11761;SDS011;5938;47.098;15.474;2022-11-20T03:29:10;28.63;;;16.53;;
11761;SDS011;5938;47.098;15.474;2022-11-20T03:33:13;31.40;;;15.47;;
11761;SDS011;5938;47.098;15.474;2022-11-20T03:37:16;27.67;;;13.53;;
11761;SDS011;5938;47.098;15.474;2022-11-20T03:41:20;24.47;;;14.83;;
11761;SDS011;5938;47.098;15.474;2022-11-20T03:45:26;26.30;;;14.30;;
11761;SDS011;5938;47.098;15.474;2022-11-20T03:49:30;30.93;;;16.00;;
11761;SDS011;5938;47.098;15.474;2022-11-20T03:53:33;23.50;;;14.17;;
11761;SDS011;5938;47.098;15.474;2022-11-20T03:57:36;22.40;;;12.33;;
11761;SDS011;5938;47.098;15.474;2022-11-20T04:01:41;25.23;;;15.13;;
11761;SDS011;5938;47.098;15.474;2022-11-20T04:05:49;22.40;;;13.30;;
11761;SDS011;5938;47.098;15.474;2022-11-20T04:09:53;20.97;;;11.87;;
11761;SDS011;5938;47.098;15.474;2022-11-20T04:13:56;16.93;;;11.30;;
11761;SDS011;5938;47.098;15.474;2022-11-20T04:18:03;25.10;;;13.90;;
11761;SDS011;5938;47.098;15.474;2022-11-20T04:22:06;20.77;;;12.93;;
11761;SDS011;5938;47.098;15.474;2022-11-20T04:26:10;25.70;;;13.63;;
11761;SDS011;5938;47.098;15.474;2022-11-20T04:30:14;24.70;;;15.50;;
11761;SDS011;5938;47.098;15.474;2022-11-20T04:34:19;21.40;;;12.90;;
11761;SDS011;5938;47.098;15.474;2022-11-20T04:38:22;24.80;;;12.73;;
11761;SDS011;5938;47.098;15.474;2022-11-20T04:42:26;19.53;;;11.50;;
11761;SDS011;5938;47.098;15.474;2022-11-20T04:46:32;22.53;;;12.97;;
11761;SDS011;5938;47.098;15.474;2022-11-20T04:50:40;20.73;;;12.83;;
11761;SDS011;5938;47.098;15.474;2022-11-20T04:54:44;19.83;;;11.33;;
11761;SDS011;5938;47.098;15.474;2022-11-20T04:58:47;18.90;;;11.50;;
11761;SDS011;5938;47.098;15.474;2022-11-20T05:02:50;21.43;;;12.60;;
11761;SDS011;5938;47.098;15.474;2022-11-20T05:06:55;23.93;;;12.90;;
11761;SDS011;5938;47.098;15.474;2022-11-20T05:10:59;17.97;;;10.90;;
11761;SDS011;5938;47.098;15.474;2022-11-20T05:15:04;25.33;;;14.37;;
11761;SDS011;5938;47.098;15.474;2022-11-20T05:19:08;16.73;;;12.30;;
11761;SDS011;5938;47.098;15.474;2022-11-20T05:23:13;19.03;;;10.90;;
11761;SDS011;5938;47.098;15.474;2022-11-20T05:27:16;18.53;;;12.53;;
11761;SDS011;5938;47.098;15.474;2022-11-20T05:31:20;21.03;;;12.87;;
11761;SDS011;5938;47.098;15.474;2022-11-20T05:35:28;18.87;;;12.70;;
11761;SDS011;5938;47.098;15.474;2022-11-20T05:39:33;19.23;;;11.70;;
11761;SDS011;5938;47.098;15.474;2022-11-20T05:43:37;19.40;;;12.10;;
11761;SDS011;5938;47.098;15.474;2022-11-20T05:47:41;20.27;;;11.07;;
11761;SDS011;5938;47.098;15.474;2022-11-20T05:51:46;20.23;;;11.50;;
11761;SDS011;5938;47.098;15.474;2022-11-20T05:55:57;19.70;;;11.40;;
11761;SDS011;5938;47.098;15.474;2022-11-20T06:00:00;19.50;;;12.57;;
11761;SDS011;5938;47.098;15.474;2022-11-20T06:04:04;21.10;;;12.07;;
11761;SDS011;5938;47.098;15.474;2022-11-20T06:08:07;19.20;;;11.97;;
11761;SDS011;5938;47.098;15.474;2022-11-20T06:12:12;23.23;;;14.30;;
11761;SDS011;5938;47.098;15.474;2022-11-20T06:16:16;21.17;;;11.37;;
11761;SDS011;5938;47.098;15.474;2022-11-20T06:20:21;28.07;;;15.00;;
11761;SDS011;5938;47.098;15.474;2022-11-20T06:24:25;18.93;;;13.10;;
11761;SDS011;5938;47.098;15.474;2022-11-20T06:28:30;20.90;;;12.03;;
11761;SDS011;5938;47.098;15.474;2022-11-20T06:32:33;23.30;;;11.77;;
11761;SDS011;5938;47.098;15.474;2022-11-20T06:36:37;26.23;;;13.60;;
11761;SDS011;5938;47.098;15.474;2022-11-20T06:40:40;18.90;;;12.40;;
11761;SDS011;5938;47.098;15.474;2022-11-20T06:44:45;21.30;;;13.57;;
11761;SDS011;5938;47.098;15.474;2022-11-20T06:48:49;14.73;;;11.03;;
11761;SDS011;5938;47.098;15.474;2022-11-20T06:52:53;20.27;;;12.47;;
11761;SDS011;5938;47.098;15.474;2022-11-20T06:56:57;22.73;;;13.07;;
11761;SDS011;5938;47.098;15.474;2022-11-20T07:01:02;28.43;;;13.30;;
11761;SDS011;5938;47.098;15.474;2022-11-20T07:05:07;27.87;;;14.33;;
11761;SDS011;5938;47.098;15.474;2022-11-20T07:09:11;29.13;;;17.57;;
11761;SDS011;5938;47.098;15.474;2022-11-20T07:13:14;35.30;;;17.23;;
11761;SDS011;5938;47.098;15.474;2022-11-20T07:17:19;30.63;;;17.10;;
11761;SDS011;5938;47.098;15.474;2022-11-20T07:21:22;32.40;;;18.60;;
11761;SDS011;5938;47.098;15.474;2022-11-20T07:25:26;37.37;;;21.40;;
11761;SDS011;5938;47.098;15.474;2022-11-20T07:29:31;31.80;;;18.40;;
11761;SDS011;5938;47.098;15.474;2022-11-20T07:33:36;27.60;;;15.50;;
11761;SDS011;5938;47.098;15.474;2022-11-20T07:37:39;23.23;;;13.50;;
11761;SDS011;5938;47.098;15.474;2022-11-20T07:41:43;23.67;;;14.73;;
11761;SDS011;5938;47.098;15.474;2022-11-20T07:45:46;22.60;;;13.33;;
11761;SDS011;5938;47.098;15.474;2022-11-20T07:49:51;21.90;;;12.40;;
11761;SDS011;5938;47.098;15.474;2022-11-20T07:53:54;20.57;;;13.20;;
11761;SDS011;5938;47.098;15.474;2022-11-20T07:57:57;15.90;;;12.40;;
11761;SDS011;5938;47.098;15.474;2022-11-20T08:02:01;21.80;;;13.63;;
11761;SDS011;5938;47.098;15.474;2022-11-20T08:06:06;18.47;;;11.00;;
11761;SDS011;5938;47.098;15.474;2022-11-20T08:10:11;15.47;;;9.90;;
11761;SDS011;5938;47.098;15.474;2022-11-20T08:14:15;14.77;;;10.40;;
11761;SDS011;5938;47.098;15.474;2022-11-20T08:18:18;18.20;;;13.33;;
11761;SDS011;5938;47.098;15.474;2022-11-20T08:22:38;16.10;;;12.00;;
11761;SDS011;5938;47.098;15.474;2022-11-20T08:26:42;23.50;;;17.87;;
11761;SDS011;5938;47.098;15.474;2022-11-20T08:30:45;22.90;;;18.57;;
11761;SDS011;5938;47.098;15.474;2022-11-20T08:34:49;20.57;;;14.87;;
11761;SDS011;5938;47.098;15.474;2022-11-20T08:38:55;18.77;;;11.50;;
11761;SDS011;5938;47.098;15.474;2022-11-20T08:42:58;20.73;;;11.67;;
11761;SDS011;5938;47.098;15.474;2022-11-20T08:47:02;18.40;;;12.93;;
11761;SDS011;5938;47.098;15.474;2022-11-20T08:51:05;16.83;;;11.70;;
11761;SDS011;5938;47.098;15.474;2022-11-20T08:55:10;20.33;;;13.17;;
11761;SDS011;5938;47.098;15.474;2022-11-20T08:59:13;19.67;;;12.97;;
11761;SDS011;5938;47.098;15.474;2022-11-20T09:03:37;17.93;;;12.50;;
11761;SDS011;5938;47.098;15.474;2022-11-20T09:07:40;17.53;;;11.20;;
11761;SDS011;5938;47.098;15.474;2022-11-20T09:11:45;18.77;;;12.37;;
11761;SDS011;5938;47.098;15.474;2022-11-20T09:15:52;18.33;;;12.57;;
11761;SDS011;5938;47.098;15.474;2022-11-20T09:19:56;16.50;;;11.80;;
11761;SDS011;5938;47.098;15.474;2022-11-20T09:24:00;17.97;;;11.60;;
11761;SDS011;5938;47.098;15.474;2022-11-20T09:28:05;21.17;;;13.70;;
11761;SDS011;5938;47.098;15.474;2022-11-20T09:32:08;20.50;;;12.93;;
11761;SDS011;5938;47.098;15.474;2022-11-20T09:36:11;20.10;;;12.30;;
11761;SDS011;5938;47.098;15.474;2022-11-20T09:40:17;17.00;;;11.80;;
11761;SDS011;5938;47.098;15.474;2022-11-20T09:44:30;15.83;;;13.20;;
11761;SDS011;5938;47.098;15.474;2022-11-20T09:48:57;16.10;;;11.53;;
11761;SDS011;5938;47.098;15.474;2022-11-20T09:53:32;19.23;;;12.90;;
11761;SDS011;5938;47.098;15.474;2022-11-20T09:57:44;16.00;;;12.63;;
11761;SDS011;5938;47.098;15.474;2022-11-20T10:01:52;14.90;;;12.10;;
11761;SDS011;5938;47.098;15.474;2022-11-20T10:05:58;18.90;;;12.67;;
11761;SDS011;5938;47.098;15.474;2022-11-20T10:10:13;18.33;;;14.17;;
11761;SDS011;5938;47.098;15.474;2022-11-20T10:14:21;15.50;;;13.37;;
11761;SDS011;5938;47.098;15.474;2022-11-20T10:18:37;14.10;;;12.60;;
11761;SDS011;5938;47.098;15.474;2022-11-20T10:23:01;13.10;;;10.57;;
11761;SDS011;5938;47.098;15.474;2022-11-20T11:05:27;8.00;;;7.20;;
11761;SDS011;5938;47.098;15.474;2022-11-20T11:09:39;7.80;;;6.83;;
11761;SDS011;5938;47.098;15.474;2022-11-20T11:14:04;9.10;;;8.03;;
11761;SDS011;5938;47.098;15.474;2022-11-20T11:18:08;10.23;;;9.20;;
11761;SDS011;5938;47.098;15.474;2022-11-20T11:22:16;13.50;;;10.47;;
11761;SDS011;5938;47.098;15.474;2022-11-20T11:26:21;11.03;;;9.80;;
11761;SDS011;5938;47.098;15.474;2022-11-20T11:30:27;11.37;;;10.27;;
11761;SDS011;5938;47.098;15.474;2022-11-20T11:34:33;10.47;;;8.70;;
11761;SDS011;5938;47.098;15.474;2022-11-20T11:38:39;12.77;;;9.77;;
11761;SDS011;5938;47.098;15.474;2022-11-20T11:42:49;9.53;;;8.53;;
11761;SDS011;5938;47.098;15.474;2022-11-20T11:46:57;10.43;;;9.33;;
11761;SDS011;5938;47.098;15.474;2022-11-20T11:51:01;11.40;;;9.30;;
11761;SDS011;5938;47.098;15.474;2022-11-20T11:55:07;9.00;;;8.10;;
11761;SDS011;5938;47.098;15.474;2022-11-20T11:59:16;12.13;;;9.83;;
11761;SDS011;5938;47.098;15.474;2022-11-20T12:03:27;11.93;;;8.90;;
11761;SDS011;5938;47.098;15.474;2022-11-20T12:07:39;12.20;;;9.17;;
11761;SDS011;5938;47.098;15.474;2022-11-20T12:11:49;7.10;;;5.70;;
11761;SDS011;5938;47.098;15.474;2022-11-20T12:15:58;9.17;;;8.17;;
11761;SDS011;5938;47.098;15.474;2022-11-20T12:20:05;5.23;;;4.60;;
11761;SDS011;5938;47.098;15.474;2022-11-20T12:24:32;2.17;;;2.07;;
11761;SDS011;5938;47.098;15.474;2022-11-20T12:28:50;3.63;;;3.23;;
11761;SDS011;5938;47.098;15.474;2022-11-20T12:33:12;4.27;;;3.87;;
11761;SDS011;5938;47.098;15.474;2022-11-20T12:37:30;5.23;;;4.73;;
11761;SDS011;5938;47.098;15.474;2022-11-20T12:41:47;6.90;;;6.30;;
11761;SDS011;5938;47.098;15.474;2022-11-20T12:46:49;7.90;;;7.10;;
11761;SDS011;5938;47.098;15.474;2022-11-20T12:51:04;5.90;;;5.30;;
11761;SDS011;5938;47.098;15.474;2022-11-20T12:55:24;6.03;;;5.20;;
11761;SDS011;5938;47.098;15.474;2022-11-20T12:59:45;5.73;;;5.17;;
11761;SDS011;5938;47.098;15.474;2022-11-20T13:04:07;5.23;;;4.83;;
11761;SDS011;5938;47.098;15.474;2022-11-20T13:08:21;5.70;;;5.10;;
11761;SDS011;5938;47.098;15.474;2022-11-20T13:12:29;5.03;;;4.60;;
11761;SDS011;5938;47.098;15.474;2022-11-20T13:16:40;6.60;;;4.40;;
11761;SDS011;5938;47.098;15.474;2022-11-20T13:20:51;4.03;;;3.73;;
11761;SDS011;5938;47.098;15.474;2022-11-20T13:24:57;4.57;;;4.00;;
11761;SDS011;5938;47.098;15.474;2022-11-20T13:29:02;5.20;;;3.83;;
11761;SDS011;5938;47.098;15.474;2022-11-20T13:33:22;4.20;;;3.80;;
11761;SDS011;5938;47.098;15.474;2022-11-20T13:37:31;4.93;;;4.10;;
11761;SDS011;5938;47.098;15.474;2022-11-20T13:41:36;6.40;;;4.40;;
11761;SDS011;5938;47.098;15.474;2022-11-20T13:45:42;5.50;;;4.63;;
11761;SDS011;5938;47.098;15.474;2022-11-20T13:49:57;6.10;;;5.33;;
11761;SDS011;5938;47.098;15.474;2022-11-20T13:58:58;5.10;;;4.00;;
11761;SDS011;5938;47.098;15.474;2022-11-20T14:03:16;4.57;;;4.17;;
11761;SDS011;5938;47.098;15.474;2022-11-20T14:07:42;4.60;;;4.20;;
11761;SDS011;5938;47.098;15.474;2022-11-20T14:11:50;4.10;;;3.60;;
11761;SDS011;5938;47.098;15.474;2022-11-20T14:15:56;3.60;;;3.30;;
11761;SDS011;5938;47.098;15.474;2022-11-20T14:20:03;5.63;;;4.90;;
11761;SDS011;5938;47.098;15.474;2022-11-20T14:24:10;3.53;;;3.23;;
11761;SDS011;5938;47.098;15.474;2022-11-20T14:28:21;4.67;;;4.27;;
11761;SDS011;5938;47.098;15.474;2022-11-20T14:32:31;5.10;;;3.63;;
11761;SDS011;5938;47.098;15.474;2022-11-20T14:36:38;3.63;;;3.07;;
11761;SDS011;5938;47.098;15.474;2022-11-20T14:40:43;3.97;;;2.87;;
11761;SDS011;5938;47.098;15.474;2022-11-20T14:44:54;4.90;;;3.10;;
11761;SDS011;5938;47.098;15.474;2022-11-20T14:49:18;4.27;;;2.97;;
11761;SDS011;5938;47.098;15.474;2022-11-20T14:53:24;4.20;;;3.33;;
11761;SDS011;5938;47.098;15.474;2022-11-20T14:57:37;5.33;;;4.10;;
11761;SDS011;5938;47.098;15.474;2022-11-20T15:01:44;4.13;;;3.73;;
11761;SDS011;5938;47.098;15.474;2022-11-20T15:06:09;6.77;;;4.73;;
11761;SDS011;5938;47.098;15.474;2022-11-20T15:10:21;5.13;;;3.83;;
11761;SDS011;5938;47.098;15.474;2022-11-20T15:14:29;6.97;;;3.80;;
11761;SDS011;5938;47.098;15.474;2022-11-20T15:18:43;5.93;;;4.40;;
11761;SDS011;5938;47.098;15.474;2022-11-20T15:23:09;5.50;;;4.33;;
11761;SDS011;5938;47.098;15.474;2022-11-20T15:27:14;8.17;;;4.33;;
11761;SDS011;5938;47.098;15.474;2022-11-20T15:31:18;5.70;;;4.57;;
11761;SDS011;5938;47.098;15.474;2022-11-20T15:35:26;5.60;;;4.83;;
11761;SDS011;5938;47.098;15.474;2022-11-20T15:39:30;9.40;;;6.70;;
11761;SDS011;5938;47.098;15.474;2022-11-20T15:43:34;10.00;;;6.53;;
11761;SDS011;5938;47.098;15.474;2022-11-20T15:47:38;5.80;;;4.90;;
11761;SDS011;5938;47.098;15.474;2022-11-20T15:51:44;10.90;;;6.40;;
11761;SDS011;5938;47.098;15.474;2022-11-20T15:55:50;15.97;;;9.47;;
11761;SDS011;5938;47.098;15.474;2022-11-20T15:59:55;15.77;;;11.53;;
11761;SDS011;5938;47.098;15.474;2022-11-20T16:03:59;12.77;;;9.40;;
11761;SDS011;5938;47.098;15.474;2022-11-20T16:08:06;9.10;;;8.07;;
11761;SDS011;5938;47.098;15.474;2022-11-20T16:12:12;31.23;;;19.37;;
11761;SDS011;5938;47.098;15.474;2022-11-20T16:16:37;12.63;;;10.70;;
11761;SDS011;5938;47.098;15.474;2022-11-20T16:20:45;18.70;;;13.03;;
11761;SDS011;5938;47.098;15.474;2022-11-20T16:24:57;14.57;;;13.07;;
11761;SDS011;5938;47.098;15.474;2022-11-20T16:29:03;18.13;;;13.23;;
11761;SDS011;5938;47.098;15.474;2022-11-20T16:33:13;15.03;;;11.93;;
11761;SDS011;5938;47.098;15.474;2022-11-20T16:37:19;13.10;;;10.27;;
11761;SDS011;5938;47.098;15.474;2022-11-20T16:41:25;14.50;;;11.70;;
11761;SDS011;5938;47.098;15.474;2022-11-20T16:45:32;22.17;;;13.87;;
11761;SDS011;5938;47.098;15.474;2022-11-20T16:49:37;18.47;;;12.90;;
11761;SDS011;5938;47.098;15.474;2022-11-20T16:53:44;17.53;;;13.70;;
11761;SDS011;5938;47.098;15.474;2022-11-20T16:57:53;18.60;;;13.67;;
11761;SDS011;5938;47.098;15.474;2022-11-20T17:02:02;19.03;;;13.90;;
11761;SDS011;5938;47.098;15.474;2022-11-20T17:06:10;20.03;;;15.53;;
11761;SDS011;5938;47.098;15.474;2022-11-20T17:10:18;28.43;;;17.07;;
11761;SDS011;5938;47.098;15.474;2022-11-20T17:14:24;32.50;;;18.40;;
11761;SDS011;5938;47.098;15.474;2022-11-20T17:22:45;32.03;;;18.13;;
11761;SDS011;5938;47.098;15.474;2022-11-20T17:26:52;24.17;;;15.27;;
11761;SDS011;5938;47.098;15.474;2022-11-20T17:31:01;21.53;;;15.20;;
11761;SDS011;5938;47.098;15.474;2022-11-20T17:35:10;62.90;;;16.17;;
11761;SDS011;5938;47.098;15.474;2022-11-20T17:39:18;47.87;;;16.67;;
11761;SDS011;5938;47.098;15.474;2022-11-20T17:43:25;49.20;;;18.30;;
11761;SDS011;5938;47.098;15.474;2022-11-20T17:47:37;30.17;;;17.00;;
11761;SDS011;5938;47.098;15.474;2022-11-20T17:51:56;28.20;;;15.53;;
11761;SDS011;5938;47.098;15.474;2022-11-20T17:56:09;32.27;;;16.87;;
11761;SDS011;5938;47.098;15.474;2022-11-20T18:00:33;38.20;;;25.73;;
11761;SDS011;5938;47.098;15.474;2022-11-20T18:04:47;51.60;;;16.43;;
11761;SDS011;5938;47.098;15.474;2022-11-20T18:08:56;61.60;;;16.43;;
11761;SDS011;5938;47.098;15.474;2022-11-20T18:13:02;43.67;;;17.23;;
11761;SDS011;5938;47.098;15.474;2022-11-20T18:17:07;35.73;;;15.20;;
11761;SDS011;5938;47.098;15.474;2022-11-20T18:21:15;31.97;;;17.90;;
11761;SDS011;5938;47.098;15.474;2022-11-20T18:25:21;27.47;;;17.50;;
11761;SDS011;5938;47.098;15.474;2022-11-20T18:29:27;27.63;;;16.37;;
11761;SDS011;5938;47.098;15.474;2022-11-20T18:33:34;22.73;;;16.03;;
11761;SDS011;5938;47.098;15.474;2022-11-20T18:37:43;32.53;;;19.97;;
11761;SDS011;5938;47.098;15.474;2022-11-20T18:41:50;30.10;;;18.30;;
11761;SDS011;5938;47.098;15.474;2022-11-20T18:46:11;24.70;;;16.20;;
11761;SDS011;5938;47.098;15.474;2022-11-20T18:50:15;22.20;;;16.97;;
11761;SDS011;5938;47.098;15.474;2022-11-20T18:54:25;26.80;;;19.17;;
11761;SDS011;5938;47.098;15.474;2022-11-20T18:58:31;26.90;;;18.00;;
11761;SDS011;5938;47.098;15.474;2022-11-20T19:02:38;26.40;;;19.60;;
11761;SDS011;5938;47.098;15.474;2022-11-20T19:06:44;24.27;;;17.13;;
11761;SDS011;5938;47.098;15.474;2022-11-20T19:10:53;26.13;;;17.50;;
11761;SDS011;5938;47.098;15.474;2022-11-20T19:15:02;27.53;;;17.30;;
11761;SDS011;5938;47.098;15.474;2022-11-20T19:19:08;27.60;;;18.00;;
11761;SDS011;5938;47.098;15.474;2022-11-20T19:23:15;26.73;;;17.23;;
11761;SDS011;5938;47.098;15.474;2022-11-20T19:27:24;30.17;;;17.67;;
11761;SDS011;5938;47.098;15.474;2022-11-20T19:31:30;26.03;;;18.03;;
11761;SDS011;5938;47.098;15.474;2022-11-20T19:35:35;27.40;;;19.73;;
11761;SDS011;5938;47.098;15.474;2022-11-20T19:39:43;33.67;;;21.20;;
11761;SDS011;5938;47.098;15.474;2022-11-20T19:43:50;28.20;;;18.57;;
11761;SDS011;5938;47.098;15.474;2022-11-20T19:47:59;28.60;;;18.23;;
11761;SDS011;5938;47.098;15.474;2022-11-20T19:52:09;23.83;;;17.90;;
11761;SDS011;5938;47.098;15.474;2022-11-20T19:56:15;24.70;;;17.30;;
11761;SDS011;5938;47.098;15.474;2022-11-20T20:00:24;25.37;;;18.20;;
11761;SDS011;5938;47.098;15.474;2022-11-20T20:04:33;26.80;;;18.93;;
11761;SDS011;5938;47.098;15.474;2022-11-20T20:08:39;26.67;;;18.13;;
11761;SDS011;5938;47.098;15.474;2022-11-20T20:12:56;24.57;;;17.53;;
11761;SDS011;5938;47.098;15.474;2022-11-20T20:17:04;27.50;;;18.00;;
11761;SDS011;5938;47.098;15.474;2022-11-20T20:21:20;29.40;;;19.60;;
11761;SDS011;5938;47.098;15.474;2022-11-20T20:25:27;26.40;;;18.00;;
11761;SDS011;5938;47.098;15.474;2022-11-20T20:29:40;23.67;;;17.77;;
11761;SDS011;5938;47.098;15.474;2022-11-20T20:33:48;21.70;;;16.30;;
11761;SDS011;5938;47.098;15.474;2022-11-20T20:37:53;31.13;;;19.50;;
11761;SDS011;5938;47.098;15.474;2022-11-20T20:42:00;25.17;;;17.93;;
11761;SDS011;5938;47.098;15.474;2022-11-20T20:46:06;24.67;;;17.07;;
11761;SDS011;5938;47.098;15.474;2022-11-20T20:50:12;31.90;;;17.77;;
11761;SDS011;5938;47.098;15.474;2022-11-20T20:54:16;24.23;;;17.40;;
11761;SDS011;5938;47.098;15.474;2022-11-20T20:58:21;29.77;;;18.33;;
11761;SDS011;5938;47.098;15.474;2022-11-20T21:02:29;23.07;;;16.77;;
11761;SDS011;5938;47.098;15.474;2022-11-20T21:06:35;27.57;;;18.23;;
11761;SDS011;5938;47.098;15.474;2022-11-20T21:10:40;26.30;;;16.93;;
11761;SDS011;5938;47.098;15.474;2022-11-20T21:14:45;28.87;;;17.90;;
11761;SDS011;5938;47.098;15.474;2022-11-20T21:18:50;20.90;;;15.20;;
11761;SDS011;5938;47.098;15.474;2022-11-20T21:22:57;22.80;;;15.13;;
11761;SDS011;5938;47.098;15.474;2022-11-20T21:27:01;25.60;;;16.30;;
11761;SDS011;5938;47.098;15.474;2022-11-20T21:31:08;24.20;;;15.63;;
11761;SDS011;5938;47.098;15.474;2022-11-20T21:35:12;27.00;;;18.10;;
11761;SDS011;5938;47.098;15.474;2022-11-20T21:39:19;26.30;;;16.93;;
11761;SDS011;5938;47.098;15.474;2022-11-20T21:43:24;25.20;;;16.00;;
11761;SDS011;5938;47.098;15.474;2022-11-20T21:47:29;30.33;;;17.17;;
11761;SDS011;5938;47.098;15.474;2022-11-20T21:51:33;24.57;;;16.40;;
11761;SDS011;5938;47.098;15.474;2022-11-20T21:55:40;28.30;;;17.93;;
11761;SDS011;5938;47.098;15.474;2022-11-20T21:59:44;28.67;;;17.33;;
11761;SDS011;5938;47.098;15.474;2022-11-20T22:03:47;28.00;;;19.43;;
11761;SDS011;5938;47.098;15.474;2022-11-20T22:07:51;26.07;;;17.97;;
11761;SDS011;5938;47.098;15.474;2022-11-20T22:11:56;27.00;;;17.17;;
11761;SDS011;5938;47.098;15.474;2022-11-20T22:16:00;24.90;;;17.47;;
11761;SDS011;5938;47.098;15.474;2022-11-20T22:20:03;26.57;;;15.90;;
11761;SDS011;5938;47.098;15.474;2022-11-20T22:24:07;23.40;;;15.80;;
11761;SDS011;5938;47.098;15.474;2022-11-20T22:28:15;25.20;;;15.40;;
11761;SDS011;5938;47.098;15.474;2022-11-20T22:32:19;23.80;;;14.40;;
11761;SDS011;5938;47.098;15.474;2022-11-20T22:36:23;26.87;;;16.90;;
11761;SDS011;5938;47.098;15.474;2022-11-20T22:40:28;27.47;;;15.40;;
11761;SDS011;5938;47.098;15.474;2022-11-20T22:44:34;25.47;;;16.67;;
11761;SDS011;5938;47.098;15.474;2022-11-20T22:48:38;28.07;;;16.10;;
11761;SDS011;5938;47.098;15.474;2022-11-20T22:52:43;25.60;;;15.97;;
11761;SDS011;5938;47.098;15.474;2022-11-20T22:56:46;29.43;;;17.33;;
11761;SDS011;5938;47.098;15.474;2022-11-20T23:00:52;29.40;;;18.10;;
11761;SDS011;5938;47.098;15.474;2022-11-20T23:04:55;27.83;;;17.10;;
11761;SDS011;5938;47.098;15.474;2022-11-20T23:08:58;25.20;;;15.27;;
11761;SDS011;5938;47.098;15.474;2022-11-20T23:13:04;23.20;;;13.33;;
11761;SDS011;5938;47.098;15.474;2022-11-20T23:17:09;20.20;;;12.87;;
11761;SDS011;5938;47.098;15.474;2022-11-20T23:21:13;21.47;;;14.47;;
11761;SDS011;5938;47.098;15.474;2022-11-20T23:25:24;20.90;;;14.00;;
11761;SDS011;5938;47.098;15.474;2022-11-20T23:29:27;17.40;;;11.40;;
11761;SDS011;5938;47.098;15.474;2022-11-20T23:33:32;22.40;;;14.37;;
11761;SDS011;5938;47.098;15.474;2022-11-20T23:37:37;20.53;;;13.50;;
11761;SDS011;5938;47.098;15.474;2022-11-20T23:41:40;21.67;;;13.20;;
11761;SDS011;5938;47.098;15.474;2022-11-20T23:45:44;20.27;;;13.20;;
11761;SDS011;5938;47.098;15.474;2022-11-20T23:49:50;19.67;;;12.97;;
11761;SDS011;5938;47.098;15.474;2022-11-20T23:53:53;21.87;;;15.90;;
11761;SDS011;5938;47.098;15.474;2022-11-20T23:58:04;25.50;;;13.63;;
